createdAt,value
2019-03-30T00:01:26.202Z,58.59
2019-03-30T00:03:54.402Z,58.35
2019-03-30T00:06:22.456Z,58.41
2019-03-30T00:08:50.556Z,58.34
2019-03-30T00:11:19.644Z,58.36
2019-03-30T00:13:47.750Z,58.46
2019-03-30T00:16:15.837Z,58.41
2019-03-30T00:18:43.954Z,58.33
2019-03-30T00:21:12.043Z,58.30
2019-03-30T00:23:40.409Z,58.33
2019-03-30T00:26:08.446Z,58.33
2019-03-30T00:28:36.492Z,58.22
2019-03-30T00:31:04.611Z,58.26
2019-03-30T00:33:32.735Z,58.23
2019-03-30T00:36:00.729Z,58.26
2019-03-30T00:38:28.956Z,58.24
2019-03-30T00:40:57.018Z,58.27
2019-03-30T00:43:25.356Z,58.21
2019-03-30T00:45:53.454Z,58.30
2019-03-30T00:48:21.495Z,58.20
2019-03-30T00:50:49.518Z,58.20
2019-03-30T00:53:17.555Z,58.19
2019-03-30T00:55:45.572Z,58.23
2019-03-30T00:58:13.627Z,58.24
2019-03-30T01:00:41.749Z,58.27
2019-03-30T01:03:09.769Z,58.26
2019-03-30T01:05:37.790Z,58.24
2019-03-30T01:08:05.835Z,58.14
2019-03-30T01:10:33.873Z,58.20
2019-03-30T01:13:01.889Z,58.19
2019-03-30T01:15:30.070Z,58.27
2019-03-30T01:17:58.142Z,58.39
2019-03-30T01:20:26.159Z,58.27
2019-03-30T01:22:54.213Z,58.27
2019-03-30T01:25:22.220Z,58.07
2019-03-30T01:27:50.286Z,58.21
2019-03-30T01:30:23.472Z,58.17
2019-03-30T01:32:48.078Z,58.32
2019-03-30T01:35:16.211Z,58.15
2019-03-30T01:37:44.325Z,58.33
2019-03-30T01:40:12.665Z,58.35
2019-03-30T01:42:40.697Z,58.10
2019-03-30T01:45:08.937Z,58.33
2019-03-30T01:47:36.973Z,58.12
2019-03-30T01:50:16.505Z,58.17
2019-03-30T01:52:34.768Z,58.21
2019-03-30T01:55:02.812Z,58.17
2019-03-30T01:57:30.909Z,58.23
2019-03-30T01:59:58.973Z,58.30
2019-03-30T02:02:27.066Z,58.24
2019-03-30T02:04:55.144Z,58.16
2019-03-30T02:07:23.170Z,58.11
2019-03-30T02:09:51.196Z,58.24
2019-03-30T02:12:19.229Z,58.28
2019-03-30T02:14:47.383Z,58.08
2019-03-30T02:17:15.449Z,58.28
2019-03-30T02:19:43.479Z,58.01
2019-03-30T02:22:11.531Z,58.10
2019-03-30T02:24:39.557Z,58.20
2019-03-30T02:27:07.565Z,58.17
2019-03-30T02:29:35.784Z,58.49
2019-03-30T02:32:04.390Z,58.10
2019-03-30T02:34:32.408Z,58.37
2019-03-30T02:37:00.626Z,58.27
2019-03-30T02:39:28.717Z,58.15
2019-03-30T02:41:56.734Z,57.97
2019-03-30T02:44:24.802Z,58.15
2019-03-30T02:46:52.825Z,58.07
2019-03-30T02:49:20.861Z,58.09
2019-03-30T02:51:48.899Z,58.11
2019-03-30T02:54:16.925Z,58.17
2019-03-30T02:56:44.946Z,58.02
2019-03-30T02:59:12.998Z,58.14
2019-03-30T03:01:41.027Z,58.03
2019-03-30T03:04:09.056Z,58.13
2019-03-30T03:06:37.096Z,57.99
2019-03-30T03:09:06.885Z,58.03
2019-03-30T03:11:34.903Z,58.12
2019-03-30T03:14:02.952Z,57.98
2019-03-30T03:16:30.973Z,57.97
2019-03-30T03:18:59.006Z,57.92
2019-03-30T03:21:27.047Z,57.97
2019-03-30T03:23:55.344Z,58.04
2019-03-30T03:26:23.452Z,57.92
2019-03-30T03:28:51.827Z,57.95
2019-03-30T03:31:19.895Z,58.06
2019-03-30T03:33:47.941Z,58.01
2019-03-30T03:36:16.201Z,57.96
2019-03-30T03:38:44.220Z,58.08
2019-03-30T03:41:12.237Z,57.97
2019-03-30T03:43:40.363Z,57.92
2019-03-30T03:46:08.405Z,58.11
2019-03-30T03:48:36.452Z,57.78
2019-03-30T03:51:04.475Z,57.72
2019-03-30T03:53:32.520Z,57.70
2019-03-30T03:56:00.552Z,57.63
2019-03-30T03:58:28.606Z,57.60
2019-03-30T04:00:56.684Z,57.84
2019-03-30T04:03:24.700Z,57.67
2019-03-30T04:05:52.732Z,57.50
2019-03-30T04:08:21.102Z,57.41
2019-03-30T04:10:49.242Z,57.53
2019-03-30T04:13:17.301Z,57.50
2019-03-30T04:15:45.616Z,57.54
2019-03-30T04:18:13.909Z,57.48
2019-03-30T04:20:41.958Z,57.53
2019-03-30T04:23:09.994Z,57.53
2019-03-30T04:25:38.187Z,57.54
2019-03-30T04:28:06.468Z,57.52
2019-03-30T04:30:37.298Z,57.62
2019-03-30T04:33:05.298Z,57.50
2019-03-30T04:35:33.414Z,57.46
2019-03-30T04:38:01.828Z,57.52
2019-03-30T04:40:29.862Z,57.47
2019-03-30T04:42:57.892Z,57.55
2019-03-30T04:45:26.065Z,57.68
2019-03-30T04:47:54.134Z,57.41
2019-03-30T04:50:22.139Z,57.46
2019-03-30T04:52:50.206Z,57.60
2019-03-30T04:55:18.223Z,57.46
2019-03-30T04:57:49.881Z,57.40
2019-03-30T05:00:16.141Z,57.45
2019-03-30T05:02:44.151Z,57.54
2019-03-30T05:05:12.184Z,57.56
2019-03-30T05:07:40.367Z,57.48
2019-03-30T05:10:08.519Z,57.56
2019-03-30T05:12:36.534Z,57.58
2019-03-30T05:15:04.584Z,57.61
2019-03-30T05:17:46.248Z,57.63
2019-03-30T05:20:02.502Z,57.61
2019-03-30T05:22:30.632Z,57.65
2019-03-30T05:24:58.659Z,57.64
2019-03-30T05:27:26.687Z,57.47
2019-03-30T05:29:54.763Z,57.59
2019-03-30T05:32:22.779Z,57.56
2019-03-30T05:34:50.815Z,57.57
2019-03-30T05:37:18.851Z,57.61
2019-03-30T05:39:46.862Z,57.47
2019-03-30T05:42:15.375Z,57.57
2019-03-30T05:44:43.401Z,57.64
2019-03-30T05:47:11.515Z,57.75
2019-03-30T05:49:39.556Z,57.64
2019-03-30T05:52:07.607Z,57.73
2019-03-30T05:54:35.627Z,57.70
2019-03-30T05:57:03.657Z,57.66
2019-03-30T05:59:31.830Z,57.60
2019-03-30T06:01:59.985Z,57.73
2019-03-30T06:04:28.269Z,57.78
2019-03-30T06:06:56.333Z,57.69
2019-03-30T06:09:24.443Z,57.72
2019-03-30T06:11:52.438Z,57.75
2019-03-30T06:14:20.494Z,57.88
2019-03-30T06:16:48.508Z,57.72
2019-03-30T06:19:16.506Z,57.80
2019-03-30T06:21:44.627Z,57.78
2019-03-30T06:24:12.648Z,57.76
2019-03-30T06:26:40.713Z,57.73
2019-03-30T06:29:08.791Z,57.95
2019-03-30T06:31:36.831Z,57.85
2019-03-30T06:34:04.880Z,57.90
2019-03-30T06:36:32.984Z,57.88
2019-03-30T06:39:01.032Z,57.81
2019-03-30T06:41:29.074Z,57.92
2019-03-30T06:43:57.130Z,57.88
2019-03-30T06:46:25.203Z,57.86
2019-03-30T06:48:53.358Z,57.87
2019-03-30T06:51:21.518Z,57.93
2019-03-30T06:53:49.652Z,57.82
2019-03-30T06:56:17.701Z,57.95
2019-03-30T06:58:45.819Z,57.95
2019-03-30T07:01:13.895Z,57.82
2019-03-30T07:03:41.916Z,57.84
2019-03-30T07:06:09.981Z,57.76
2019-03-30T07:08:38.298Z,58.07
2019-03-30T07:11:20.223Z,58.92
2019-03-30T07:13:36.599Z,59.28
2019-03-30T07:16:04.596Z,59.43
2019-03-30T07:18:32.673Z,59.77
2019-03-30T07:21:00.686Z,60.51
2019-03-30T07:23:28.706Z,59.78
2019-03-30T07:25:56.759Z,59.66
2019-03-30T07:28:24.790Z,59.48
2019-03-30T07:30:52.813Z,59.86
2019-03-30T07:33:20.945Z,59.68
2019-03-30T07:35:49.050Z,59.66
2019-03-30T07:38:17.062Z,59.60
2019-03-30T07:40:45.123Z,59.49
2019-03-30T07:43:13.209Z,59.45
2019-03-30T07:45:41.244Z,59.49
2019-03-30T07:48:09.298Z,59.44
2019-03-30T07:50:37.325Z,59.40
2019-03-30T07:53:05.332Z,59.39
2019-03-30T07:55:33.516Z,59.52
2019-03-30T07:58:01.696Z,59.74
2019-03-30T08:00:31.083Z,59.95
2019-03-30T08:02:59.235Z,59.87
2019-03-30T08:05:27.280Z,59.83
2019-03-30T08:07:55.305Z,60.08
2019-03-30T08:10:23.359Z,59.95
2019-03-30T08:12:51.370Z,59.92
2019-03-30T08:15:19.494Z,60.62
2019-03-30T08:17:47.667Z,61.17
2019-03-30T08:20:15.775Z,61.08
2019-03-30T08:22:43.806Z,59.54
2019-03-30T08:25:11.838Z,60.97
2019-03-30T08:27:39.867Z,61.10
2019-03-30T08:30:07.970Z,61.06
2019-03-30T08:32:36.023Z,60.97
2019-03-30T08:35:04.081Z,61.06
2019-03-30T08:37:32.118Z,61.18
2019-03-30T08:40:00.424Z,61.19
2019-03-30T08:42:28.608Z,61.14
2019-03-30T08:44:56.678Z,60.89
2019-03-30T08:47:24.722Z,60.88
2019-03-30T08:49:52.728Z,61.08
2019-03-30T08:52:20.792Z,61.07
2019-03-30T08:54:48.890Z,60.89
2019-03-30T08:57:16.958Z,61.03
2019-03-30T08:59:44.985Z,61.18
2019-03-30T09:02:13.031Z,61.65
2019-03-30T09:04:41.089Z,61.39
2019-03-30T09:07:09.115Z,61.36
2019-03-30T09:09:37.160Z,61.90
2019-03-30T09:12:05.290Z,61.47
2019-03-30T09:14:33.496Z,60.70
2019-03-30T09:17:01.617Z,60.72
2019-03-30T09:19:29.665Z,61.10
2019-03-30T09:21:57.694Z,62.58
2019-03-30T09:24:25.722Z,62.74
2019-03-30T09:26:53.785Z,62.97
2019-03-30T09:29:21.940Z,63.03
2019-03-30T09:31:49.977Z,62.81
2019-03-30T09:34:18.115Z,62.73
2019-03-30T09:36:46.154Z,61.94
2019-03-30T09:39:14.254Z,61.65
2019-03-30T09:41:42.303Z,61.70
2019-03-30T09:44:10.311Z,61.62
2019-03-30T09:46:38.336Z,61.62
2019-03-30T09:49:06.417Z,61.46
2019-03-30T09:51:34.461Z,61.56
2019-03-30T09:54:02.535Z,60.88
2019-03-30T09:56:30.605Z,60.96
2019-03-30T09:58:58.671Z,60.66
2019-03-30T10:01:26.831Z,60.85
2019-03-30T10:03:54.859Z,60.46
2019-03-30T10:06:33.801Z,60.72
2019-03-30T10:08:52.759Z,60.91
2019-03-30T10:11:20.822Z,60.84
2019-03-30T10:13:49.014Z,60.85
2019-03-30T10:16:17.073Z,60.81
2019-03-30T10:18:45.112Z,60.65
2019-03-30T10:21:13.157Z,60.30
2019-03-30T10:23:41.244Z,60.40
2019-03-30T10:26:09.310Z,60.35
2019-03-30T10:28:37.360Z,60.18
2019-03-30T10:31:05.465Z,60.53
2019-03-30T10:33:33.540Z,60.17
2019-03-30T10:36:01.589Z,59.77
2019-03-30T10:38:29.815Z,60.16
2019-03-30T10:40:57.943Z,59.98
2019-03-30T10:43:26.043Z,60.16
2019-03-30T10:45:54.087Z,60.27
2019-03-30T10:48:22.124Z,59.78
2019-03-30T10:50:50.189Z,60.14
2019-03-30T10:53:18.264Z,60.04
2019-03-30T10:55:46.629Z,60.03
2019-03-30T10:58:14.664Z,59.49
2019-03-30T11:00:42.746Z,59.65
2019-03-30T11:03:10.818Z,59.84
2019-03-30T11:05:38.879Z,60.20
2019-03-30T11:08:07.009Z,59.69
2019-03-30T11:10:35.056Z,59.62
2019-03-30T11:13:03.356Z,59.79
2019-03-30T11:15:34.143Z,59.46
2019-03-30T11:18:01.163Z,59.75
2019-03-30T11:20:29.265Z,59.24
2019-03-30T11:22:57.365Z,58.73
2019-03-30T11:25:25.432Z,58.75
2019-03-30T11:27:53.745Z,59.08
2019-03-30T11:30:21.806Z,59.71
2019-03-30T11:32:49.975Z,59.20
2019-03-30T11:35:18.000Z,59.04
2019-03-30T11:37:46.041Z,59.50
2019-03-30T11:40:14.575Z,59.14
2019-03-30T11:42:42.675Z,59.48
2019-03-30T11:45:10.735Z,59.43
2019-03-30T11:47:38.853Z,59.39
2019-03-30T11:50:06.947Z,59.16
2019-03-30T11:52:35.036Z,59.30
2019-03-30T11:55:03.095Z,59.04
2019-03-30T11:57:31.151Z,59.34
2019-03-30T11:59:59.264Z,59.37
2019-03-30T12:02:28.459Z,59.52
2019-03-30T12:04:56.616Z,59.31
2019-03-30T12:07:24.999Z,59.56
2019-03-30T12:09:53.083Z,59.72
2019-03-30T12:12:21.143Z,59.88
2019-03-30T12:14:49.165Z,58.99
2019-03-30T12:17:17.204Z,58.84
2019-03-30T12:19:45.246Z,58.98
2019-03-30T12:22:13.271Z,59.20
2019-03-30T12:24:41.320Z,58.81
2019-03-30T12:27:09.366Z,59.37
2019-03-30T12:29:37.387Z,59.19
2019-03-30T12:32:05.474Z,59.25
2019-03-30T12:34:33.532Z,59.19
2019-03-30T12:37:01.600Z,59.04
2019-03-30T12:39:29.695Z,58.95
2019-03-30T12:41:57.765Z,58.89
2019-03-30T12:44:25.947Z,58.81
2019-03-30T12:46:54.024Z,58.66
2019-03-30T12:49:22.058Z,58.54
2019-03-30T12:51:50.098Z,58.75
2019-03-30T12:54:18.159Z,58.69
2019-03-30T12:56:49.317Z,58.50
2019-03-30T12:59:17.326Z,58.38
2019-03-30T13:01:45.397Z,58.30
2019-03-30T13:04:13.491Z,58.32
2019-03-30T13:06:41.533Z,58.18
2019-03-30T13:09:09.568Z,58.27
2019-03-30T13:11:37.617Z,58.11
2019-03-30T13:14:05.638Z,58.13
2019-03-30T13:16:33.728Z,58.04
2019-03-30T13:19:01.789Z,58.02
2019-03-30T13:21:32.355Z,57.87
2019-03-30T13:23:59.574Z,57.75
2019-03-30T13:26:27.627Z,57.85
2019-03-30T13:28:55.633Z,57.82
2019-03-30T13:31:23.657Z,57.84
2019-03-30T13:33:51.730Z,57.81
2019-03-30T13:36:21.798Z,57.85
2019-03-30T13:38:49.834Z,57.87
2019-03-30T13:41:17.873Z,57.80
2019-03-30T13:43:46.009Z,57.76
2019-03-30T13:46:14.040Z,57.74
2019-03-30T13:48:42.095Z,57.72
2019-03-30T13:51:10.122Z,57.69
2019-03-30T13:53:38.154Z,57.72
2019-03-30T13:56:16.606Z,57.69
2019-03-30T13:58:36.682Z,57.65
2019-03-30T14:01:04.899Z,57.63
2019-03-30T14:03:32.952Z,57.66
2019-03-30T14:06:00.985Z,57.63
2019-03-30T14:08:29.017Z,57.66
2019-03-30T14:10:58.061Z,57.53
2019-03-30T14:13:26.092Z,57.53
2019-03-30T14:15:54.200Z,57.52
2019-03-30T14:18:22.518Z,57.50
2019-03-30T14:20:50.588Z,57.48
2019-03-30T14:23:18.913Z,57.49
2019-03-30T14:25:46.978Z,57.46
2019-03-30T14:28:15.427Z,57.44
2019-03-30T14:30:43.712Z,57.44
2019-03-30T14:33:11.807Z,57.40
2019-03-30T14:35:39.826Z,57.39
2019-03-30T14:38:07.887Z,57.32
2019-03-30T14:40:36.164Z,57.35
2019-03-30T14:43:04.210Z,57.38
2019-03-30T14:45:32.236Z,57.50
2019-03-30T14:48:00.355Z,57.96
2019-03-30T14:50:28.398Z,59.52
2019-03-30T14:52:56.452Z,59.56
2019-03-30T14:55:24.524Z,59.53
2019-03-30T14:57:52.590Z,59.51
2019-03-30T15:00:23.763Z,59.45
2019-03-30T15:02:51.985Z,59.43
2019-03-30T15:05:20.153Z,60.27
2019-03-30T15:07:48.281Z,61.01
2019-03-30T15:10:16.357Z,60.97
2019-03-30T15:12:44.440Z,60.66
2019-03-30T15:15:12.434Z,60.50
2019-03-30T15:17:41.293Z,60.33
2019-03-30T15:20:10.390Z,60.26
2019-03-30T15:22:38.594Z,60.18
2019-03-30T15:25:06.634Z,60.07
2019-03-30T15:27:34.675Z,60.03
2019-03-30T15:30:02.706Z,59.95
2019-03-30T15:32:30.769Z,59.85
2019-03-30T15:34:58.808Z,59.75
2019-03-30T15:37:26.933Z,59.69
2019-03-30T15:39:55.025Z,59.20
2019-03-30T15:42:23.056Z,59.02
2019-03-30T15:44:51.138Z,58.87
2019-03-30T15:47:19.169Z,58.85
2019-03-30T15:49:47.192Z,58.73
2019-03-30T15:52:15.304Z,59.20
2019-03-30T15:54:43.439Z,59.71
2019-03-30T15:57:14.279Z,59.95
2019-03-30T15:59:41.374Z,59.58
2019-03-30T16:02:09.486Z,60.86
2019-03-30T16:04:37.526Z,63.00
2019-03-30T16:07:07.039Z,63.49
2019-03-30T16:09:35.243Z,63.33
2019-03-30T16:12:03.291Z,63.44
2019-03-30T16:14:31.355Z,63.22
2019-03-30T16:16:59.519Z,63.31
2019-03-30T16:19:27.565Z,63.37
2019-03-30T16:21:55.624Z,62.27
2019-03-30T16:24:23.658Z,62.78
2019-03-30T16:26:51.692Z,62.87
2019-03-30T16:29:19.788Z,62.87
2019-03-30T16:31:47.827Z,63.24
2019-03-30T16:34:15.909Z,62.56
2019-03-30T16:36:44.208Z,63.20
2019-03-30T16:39:12.309Z,62.69
2019-03-30T16:41:40.442Z,62.81
2019-03-30T16:44:08.493Z,62.33
2019-03-30T16:46:36.564Z,61.62
2019-03-30T16:49:04.678Z,62.22
2019-03-30T16:51:32.759Z,62.27
2019-03-30T16:54:00.826Z,61.97
2019-03-30T16:56:28.884Z,61.98
2019-03-30T16:58:57.065Z,61.81
2019-03-30T17:01:25.172Z,63.41
2019-03-30T17:03:53.320Z,62.94
2019-03-30T17:06:21.593Z,63.25
2019-03-30T17:08:49.743Z,63.79
2019-03-30T17:11:18.243Z,64.25
2019-03-30T17:13:46.274Z,64.53
2019-03-30T17:16:14.361Z,64.87
2019-03-30T17:18:42.391Z,64.06
2019-03-30T17:21:10.678Z,63.67
2019-03-30T17:23:38.991Z,62.38
2019-03-30T17:26:07.056Z,63.80
2019-03-30T17:28:35.072Z,63.22
2019-03-30T17:31:03.178Z,64.48
2019-03-30T17:33:31.254Z,64.53
2019-03-30T17:35:59.392Z,64.26
2019-03-30T17:38:27.435Z,64.74
2019-03-30T17:40:55.457Z,65.11
2019-03-30T17:43:23.753Z,64.77
2019-03-30T17:45:51.838Z,65.22
2019-03-30T17:48:19.869Z,65.01
2019-03-30T17:50:47.934Z,64.81
2019-03-30T17:53:15.990Z,64.75
2019-03-30T17:55:44.066Z,61.42
2019-03-30T17:58:13.551Z,60.47
2019-03-30T18:00:42.052Z,59.20
2019-03-30T18:03:10.090Z,58.61
2019-03-30T18:05:38.116Z,58.73
2019-03-30T18:08:06.187Z,58.50
2019-03-30T18:10:34.279Z,58.21
2019-03-30T18:13:02.323Z,57.62
2019-03-30T18:15:30.375Z,57.79
2019-03-30T18:17:58.406Z,57.67
2019-03-30T18:20:26.911Z,57.68
2019-03-30T18:22:55.054Z,59.00
2019-03-30T18:25:23.102Z,59.40
2019-03-30T18:27:51.121Z,60.36
2019-03-30T18:30:19.163Z,60.48
2019-03-30T18:32:47.189Z,60.58
2019-03-30T18:35:15.290Z,59.75
2019-03-30T18:37:43.345Z,57.79
2019-03-30T18:40:11.387Z,56.21
2019-03-30T18:42:39.418Z,55.58
2019-03-30T18:45:07.480Z,56.05
2019-03-30T18:47:35.537Z,56.24
2019-03-30T18:50:03.566Z,55.83
2019-03-30T18:52:31.641Z,55.74
2019-03-30T18:54:59.857Z,55.66
2019-03-30T18:57:27.898Z,55.67
2019-03-30T18:59:55.948Z,55.99
2019-03-30T19:02:24.145Z,55.64
2019-03-30T19:04:52.189Z,55.75
2019-03-30T19:07:20.295Z,55.79
2019-03-30T19:09:48.331Z,55.86
2019-03-30T19:12:16.345Z,59.59
2019-03-30T19:14:44.619Z,57.55
2019-03-30T19:17:12.699Z,57.23
2019-03-30T19:19:40.719Z,58.63
2019-03-30T19:22:08.842Z,57.98
2019-03-30T19:24:36.864Z,59.85
2019-03-30T19:27:04.898Z,58.69
2019-03-30T19:29:32.932Z,59.91
2019-03-30T19:32:00.950Z,60.55
2019-03-30T19:34:29.073Z,59.56
2019-03-30T19:36:57.120Z,60.20
2019-03-30T19:39:25.167Z,59.74
2019-03-30T19:41:53.289Z,60.01
2019-03-30T19:44:21.424Z,60.31
2019-03-30T19:46:49.828Z,60.40
2019-03-30T19:49:17.909Z,57.69
2019-03-30T19:51:45.999Z,56.05
2019-03-30T19:54:14.052Z,55.64
2019-03-30T19:56:42.126Z,55.66
2019-03-30T19:59:11.397Z,56.37
2019-03-30T20:01:39.600Z,56.58
2019-03-30T20:04:08.044Z,56.45
2019-03-30T20:06:36.106Z,56.21
2019-03-30T20:09:05.838Z,56.15
2019-03-30T20:11:34.223Z,56.42
2019-03-30T20:14:02.511Z,56.95
2019-03-30T20:16:30.606Z,56.86
2019-03-30T20:19:11.392Z,56.79
2019-03-30T20:21:28.469Z,56.50
2019-03-30T20:23:56.522Z,56.66
2019-03-30T20:26:24.544Z,56.83
2019-03-30T20:28:52.615Z,56.53
2019-03-30T20:31:20.658Z,56.27
2019-03-30T20:33:48.701Z,56.37
2019-03-30T20:36:16.718Z,56.54
2019-03-30T20:38:44.808Z,56.27
2019-03-30T20:41:12.942Z,56.21
2019-03-30T20:43:41.019Z,56.44
2019-03-30T20:46:09.226Z,56.45
2019-03-30T20:48:37.327Z,56.24
2019-03-30T20:51:05.419Z,56.26
2019-03-30T20:53:33.549Z,56.40
2019-03-30T20:56:01.991Z,56.52
2019-03-30T20:58:30.047Z,56.73
2019-03-30T21:00:58.097Z,56.39
2019-03-30T21:03:26.240Z,58.08
2019-03-30T21:05:54.306Z,59.00
2019-03-30T21:08:22.536Z,59.17
2019-03-30T21:10:50.706Z,59.61
2019-03-30T21:13:19.064Z,59.94
2019-03-30T21:15:47.175Z,60.27
2019-03-30T21:18:15.236Z,60.37
2019-03-30T21:20:43.345Z,60.47
2019-03-30T21:23:11.415Z,60.63
2019-03-30T21:25:39.489Z,60.62
2019-03-30T21:28:07.516Z,60.54
2019-03-30T21:30:35.555Z,60.95
2019-03-30T21:33:03.583Z,60.93
2019-03-30T21:35:31.630Z,61.12
2019-03-30T21:37:59.716Z,61.20
2019-03-30T21:40:27.741Z,61.20
2019-03-30T21:42:55.772Z,61.21
2019-03-30T21:45:23.885Z,61.32
2019-03-30T21:47:51.905Z,61.43
2019-03-30T21:50:19.972Z,61.57
2019-03-30T21:52:48.140Z,61.47
2019-03-30T21:55:16.159Z,61.72
2019-03-30T21:57:44.267Z,61.65
2019-03-30T22:00:12.340Z,61.65
2019-03-30T22:02:40.344Z,61.83
2019-03-30T22:05:08.417Z,61.95
2019-03-30T22:07:36.456Z,61.81
2019-03-30T22:10:04.777Z,61.96
2019-03-30T22:12:32.889Z,61.75
2019-03-30T22:15:00.947Z,61.83
2019-03-30T22:17:29.034Z,61.86
2019-03-30T22:19:57.056Z,61.93
2019-03-30T22:22:25.126Z,61.87
2019-03-30T22:24:53.164Z,62.25
2019-03-30T22:27:21.178Z,62.54
2019-03-30T22:29:49.262Z,62.59
2019-03-30T22:32:17.280Z,62.73
2019-03-30T22:34:45.426Z,62.87
2019-03-30T22:37:13.468Z,62.76
2019-03-30T22:39:41.524Z,62.84
2019-03-30T22:42:09.548Z,62.94
2019-03-30T22:44:37.686Z,63.02
2019-03-30T22:47:05.712Z,62.90
2019-03-30T22:49:34.074Z,62.81
2019-03-30T22:52:02.235Z,62.70
2019-03-30T22:54:30.294Z,62.36
2019-03-30T22:56:58.355Z,61.94
2019-03-30T22:59:26.438Z,62.16
2019-03-30T23:01:54.527Z,62.38
2019-03-30T23:04:22.661Z,61.87
2019-03-30T23:06:50.719Z,61.81
2019-03-30T23:09:18.755Z,61.44
2019-03-30T23:11:46.835Z,60.73
2019-03-30T23:14:14.907Z,60.66
2019-03-30T23:16:42.941Z,60.39
2019-03-30T23:19:10.962Z,60.23
2019-03-30T23:21:39.034Z,59.94
2019-03-30T23:24:07.461Z,59.64
2019-03-30T23:26:35.836Z,60.41
2019-03-30T23:29:03.886Z,60.17
2019-03-30T23:31:31.922Z,61.45
2019-03-30T23:34:00.055Z,61.60
2019-03-30T23:36:28.110Z,61.46
2019-03-30T23:38:56.158Z,60.70
2019-03-30T23:41:24.185Z,60.52
2019-03-30T23:43:52.212Z,60.44
2019-03-30T23:46:20.732Z,60.46
2019-03-30T23:48:48.762Z,60.40
2019-03-30T23:51:16.832Z,60.41
2019-03-30T23:53:44.976Z,60.33
2019-03-30T23:56:13.320Z,60.20
2019-03-30T23:58:41.428Z,60.42
